Terminal Aerodrome Forecast
Issued by NWS Wichita, KS

Home | Current Version | Previous Version | Text Only | Print | Product List | Glossary Off
Versions: 1 2 3 4 5 6 7 8 9 10 11 12 13 14

159
FTUS43 KICT 212325
TAFICT
TAF
KICT 212325Z 2200/2224 03010KT P6SM -SHRA BKN008 OVC025
     FM221000 35010KT P6SM VCSH OVC008
     FM221300 34008KT P6SM OVC015
     FM221800 35010KT P6SM OVC025
     FM222200 01012KT P6SM OVC040=

USA.gov is the U.S. government's official web portal to all federal, state and local government web resources and services.